Time;durP1;ratioP1;P1;durP2;ratioP2;P2;SDS_P1;SDS_P2;PMS_P1;PMS_P2;Temp;Humidity;BMP_temperature;BMP_pressure;BME280_temperature;BME280_humidity;BME280_pressure;Samples;Min_cycle;Max_cycle;Signal;HPM_P1;HPM_P2
2023/03/16 00:00:47;;;;;;;2.55;1.80;;;6.00;65.70;;;;;;5074712;28;20039;-66
2023/03/16 00:03:19;;;;;;;4.25;2.10;;;6.00;65.70;;;;;;5083799;28;20486;-66
2023/03/16 00:05:49;;;;;;;2.67;1.80;;;6.00;65.90;;;;;;5081487;28;20028;-65
2023/03/16 00:08:15;;;;;;;2.30;1.92;;;6.00;65.90;;;;;;5088470;28;20023;-65
2023/03/16 00:10:48;;;;;;;3.22;1.75;;;6.00;65.90;;;;;;5083989;28;20363;-67
2023/03/16 00:13:15;;;;;;;1.75;1.42;;;6.00;66.10;;;;;;5088234;28;20027;-67
2023/03/16 00:15:48;;;;;;;1.90;1.60;;;6.00;66.10;;;;;;5086207;28;20020;-66
2023/03/16 00:18:13;;;;;;;3.50;1.83;;;6.00;66.10;;;;;;5084543;28;20390;-67
2023/03/16 00:20:39;;;;;;;2.58;1.80;;;6.00;66.10;;;;;;5088383;28;20020;-67
2023/03/16 00:23:04;;;;;;;2.45;1.90;;;6.00;66.20;;;;;;5086890;28;20099;-66
2023/03/16 00:25:32;;;;;;;2.55;1.70;;;6.00;66.30;;;;;;5091278;28;20038;-66
2023/03/16 00:28:02;;;;;;;2.85;2.00;;;6.00;66.20;;;;;;5082967;28;20021;-66
2023/03/16 00:30:31;;;;;;;2.20;1.75;;;6.00;66.20;;;;;;5082550;28;20035;-66
2023/03/16 00:32:57;;;;;;;2.83;1.90;;;6.00;66.20;;;;;;5088527;28;20542;-67
2023/03/16 00:35:23;;;;;;;2.65;1.83;;;6.00;66.20;;;;;;5081676;28;20051;-67
2023/03/16 00:37:49;;;;;;;3.42;1.90;;;6.00;66.20;;;;;;5086372;28;20016;-67
2023/03/16 00:40:15;;;;;;;2.50;1.90;;;6.00;66.30;;;;;;5092083;28;20081;-66
2023/03/16 00:42:41;;;;;;;2.33;1.92;;;6.10;66.30;;;;;;5086262;28;20077;-67
2023/03/16 00:45:08;;;;;;;2.25;1.90;;;6.00;66.30;;;;;;5084327;28;20028;-66
2023/03/16 00:47:34;;;;;;;2.55;1.75;;;6.10;66.30;;;;;;5079323;28;20074;-66
2023/03/16 00:50:01;;;;;;;2.55;1.65;;;6.10;66.30;;;;;;5081175;28;20082;-66
2023/03/16 00:52:27;;;;;;;2.53;1.85;;;6.10;66.20;;;;;;5086651;28;20112;-67
2023/03/16 00:54:54;;;;;;;3.33;1.88;;;6.10;66.30;;;;;;5083986;28;20058;-67
2023/03/16 00:57:21;;;;;;;2.80;1.80;;;6.10;66.30;;;;;;5084833;28;20517;-67
2023/03/16 00:59:48;;;;;;;4.38;2.08;;;6.20;66.40;;;;;;5086298;28;20036;-67
2023/03/16 01:02:16;;;;;;;3.20;1.95;;;6.10;66.40;;;;;;5081526;28;20405;-67
2023/03/16 01:04:42;;;;;;;2.92;1.90;;;6.10;66.40;;;;;;5086840;28;20052;-67
2023/03/16 01:07:11;;;;;;;2.08;1.80;;;6.10;66.50;;;;;;5088468;28;20123;-67
2023/03/16 01:09:37;;;;;;;3.15;1.92;;;6.10;66.60;;;;;;5082975;28;20058;-67
2023/03/16 01:12:13;;;;;;;2.53;2.00;;;6.00;66.60;;;;;;5079447;28;20031;-68
2023/03/16 01:14:39;;;;;;;2.10;1.67;;;6.00;66.80;;;;;;5084875;28;20103;-68
2023/03/16 01:17:07;;;;;;;2.55;1.70;;;6.00;66.90;;;;;;5085902;28;20585;-67
2023/03/16 01:19:34;;;;;;;3.47;1.88;;;6.00;66.90;;;;;;5087341;28;20383;-67
2023/03/16 01:22:01;;;;;;;3.33;1.77;;;6.00;67.10;;;;;;5084721;28;20107;-67
2023/03/16 01:24:26;;;;;;;3.05;1.90;;;6.00;67.10;;;;;;5084584;28;20082;-67
2023/03/16 01:26:53;;;;;;;3.75;1.95;;;6.00;67.10;;;;;;5084659;28;20032;-67
2023/03/16 01:29:19;;;;;;;6.53;2.40;;;6.00;67.10;;;;;;5084467;28;20067;-67
2023/03/16 01:31:44;;;;;;;3.80;2.17;;;6.00;67.10;;;;;;5081571;28;20540;-68
2023/03/16 01:34:17;;;;;;;3.75;2.42;;;6.00;67.20;;;;;;5082507;28;20020;-68
2023/03/16 01:36:46;;;;;;;2.80;1.80;;;6.00;67.40;;;;;;5075983;28;20103;-68
2023/03/16 01:39:13;;;;;;;3.50;2.30;;;6.00;67.40;;;;;;5083406;28;20032;-68
2023/03/16 01:41:40;;;;;;;2.35;1.65;;;6.00;67.40;;;;;;5086497;28;20405;-68
2023/03/16 01:44:10;;;;;;;2.40;1.92;;;6.00;67.30;;;;;;5084358;28;20115;-68
2023/03/16 01:46:35;;;;;;;4.30;2.00;;;6.10;67.40;;;;;;5078939;28;20028;-67
2023/03/16 01:49:22;;;;;;;2.42;1.92;;;6.10;67.40;;;;;;5086934;28;20031;-68
2023/03/16 01:51:53;;;;;;;3.10;1.85;;;6.00;67.40;;;;;;5079159;28;20394;-68
2023/03/16 01:54:21;;;;;;;2.72;2.10;;;6.00;67.50;;;;;;5085603;28;20374;-68
2023/03/16 01:56:55;;;;;;;2.58;2.00;;;6.00;67.60;;;;;;5086417;28;20032;-68
2023/03/16 01:59:25;;;;;;;1.65;1.55;;;6.00;67.60;;;;;;5082178;28;20024;-68
2023/03/16 02:01:51;;;;;;;3.78;2.03;;;6.00;67.60;;;;;;5085748;28;20024;-67
2023/03/16 02:04:36;;;;;;;2.92;1.80;;;6.00;67.70;;;;;;5088598;28;20024;-68
2023/03/16 02:07:04;;;;;;;2.78;2.03;;;6.00;67.80;;;;;;5075414;28;20032;-68
2023/03/16 02:09:30;;;;;;;2.60;1.90;;;6.00;67.80;;;;;;5084135;28;20016;-68
2023/03/16 02:11:57;;;;;;;3.38;1.60;;;6.00;67.80;;;;;;5078514;28;20028;-68
2023/03/16 02:14:23;;;;;;;2.15;1.70;;;6.00;67.90;;;;;;5083529;28;20068;-68
2023/03/16 02:16:50;;;;;;;3.40;1.98;;;6.00;67.90;;;;;;5083758;28;20020;-68
2023/03/16 02:19:42;;;;;;;4.32;2.35;;;6.00;67.90;;;;;;5084406;28;20031;-68
2023/03/16 02:22:09;;;;;;;4.22;2.40;;;5.90;67.90;;;;;;5085242;28;20035;-68
2023/03/16 02:24:36;;;;;;;4.05;2.42;;;5.90;68.00;;;;;;5083528;28;20027;-68
2023/03/16 02:27:09;;;;;;;2.95;2.08;;;5.90;68.20;;;;;;5080874;28;20118;-68
2023/03/16 02:30:04;;;;;;;2.15;1.90;;;5.90;68.20;;;;;;5084483;28;20021;-68
2023/03/16 02:32:31;;;;;;;2.63;1.80;;;5.90;68.20;;;;;;5083267;28;20020;-68
2023/03/16 02:34:59;;;;;;;4.15;2.45;;;5.90;68.20;;;;;;5081183;28;20406;-67
2023/03/16 02:37:26;;;;;;;5.43;2.38;;;5.90;68.20;;;;;;5085188;28;20103;-68
2023/03/16 02:39:52;;;;;;;2.80;1.60;;;5.90;68.20;;;;;;5083441;28;20446;-68
2023/03/16 02:42:20;;;;;;;3.10;1.77;;;6.00;68.30;;;;;;5081381;28;20490;-67
2023/03/16 02:44:53;;;;;;;3.13;1.95;;;5.90;68.20;;;;;;5078417;28;20542;-67
2023/03/16 02:47:26;;;;;;;2.80;2.10;;;5.90;68.40;;;;;;5078703;28;20020;-68
2023/03/16 02:49:51;;;;;;;3.28;2.00;;;5.90;68.50;;;;;;5086800;28;20099;-68
2023/03/16 02:52:17;;;;;;;3.72;2.20;;;5.90;68.50;;;;;;5085928;28;20714;-68
2023/03/16 02:54:43;;;;;;;3.03;2.22;;;5.90;68.60;;;;;;5086515;28;20077;-67
2023/03/16 02:57:08;;;;;;;3.75;2.33;;;5.90;68.70;;;;;;5080764;28;20081;-68
2023/03/16 02:59:34;;;;;;;2.70;1.90;;;5.90;69.00;;;;;;5084517;28;20077;-67
2023/03/16 03:02:00;;;;;;;3.90;2.28;;;5.80;68.90;;;;;;5087231;28;20550;-67
2023/03/16 03:04:25;;;;;;;2.42;1.83;;;5.80;69.00;;;;;;5078570;28;20102;-67
2023/03/16 03:06:51;;;;;;;3.55;2.40;;;5.80;68.90;;;;;;5086271;28;20024;-68
2023/03/16 03:09:18;;;;;;;3.08;2.35;;;5.90;68.90;;;;;;5079634;28;20022;-67
2023/03/16 03:11:47;;;;;;;4.28;1.92;;;5.90;69.00;;;;;;5081819;28;20075;-67
2023/03/16 03:14:15;;;;;;;3.10;2.17;;;5.90;69.00;;;;;;5080993;28;20020;-67
2023/03/16 03:16:41;;;;;;;2.38;1.77;;;5.80;69.00;;;;;;5077962;28;20028;-67
2023/03/16 03:19:06;;;;;;;3.75;2.25;;;5.80;69.10;;;;;;5082021;28;20036;-67
2023/03/16 03:21:32;;;;;;;3.88;2.40;;;5.80;69.20;;;;;;5076230;28;20103;-68
2023/03/16 03:23:57;;;;;;;5.10;1.98;;;5.80;69.30;;;;;;5073642;28;20055;-68
2023/03/16 03:26:23;;;;;;;2.60;2.00;;;5.80;69.30;;;;;;5086389;28;20032;-67
2023/03/16 03:28:51;;;;;;;3.38;1.80;;;5.90;69.40;;;;;;5084840;28;20382;-67
2023/03/16 03:31:20;;;;;;;2.30;2.00;;;5.90;69.80;;;;;;5069266;28;20029;-68
2023/03/16 03:33:45;;;;;;;4.10;2.10;;;5.90;69.30;;;;;;5072201;28;20017;-68
2023/03/16 03:36:11;;;;;;;3.35;2.33;;;5.90;69.40;;;;;;5082181;28;20024;-67
2023/03/16 03:38:38;;;;;;;2.97;2.20;;;5.90;69.50;;;;;;5078279;28;20028;-68
2023/03/16 03:41:06;;;;;;;3.05;2.08;;;5.90;69.50;;;;;;5081175;28;20554;-68
2023/03/16 03:43:31;;;;;;;2.60;1.90;;;5.90;69.60;;;;;;5078080;28;20016;-67
2023/03/16 03:45:58;;;;;;;2.78;2.00;;;5.90;69.70;;;;;;5081404;28;20073;-68
2023/03/16 03:48:24;;;;;;;3.13;1.70;;;5.90;69.70;;;;;;5083457;28;20501;-68
2023/03/16 03:50:50;;;;;;;3.38;1.50;;;6.00;69.60;;;;;;5082769;28;20024;-68
2023/03/16 03:53:16;;;;;;;2.13;1.77;;;6.00;69.70;;;;;;5086301;28;20197;-68
2023/03/16 03:55:41;;;;;;;2.92;1.85;;;6.00;69.70;;;;;;5086732;28;20028;-68
2023/03/16 03:58:07;;;;;;;2.80;2.08;;;6.00;69.70;;;;;;5086868;28;20086;-68
2023/03/16 04:00:33;;;;;;;2.65;2.00;;;6.00;70.50;;;;;;5088613;28;20111;-67
2023/03/16 04:02:58;;;;;;;3.60;2.30;;;6.00;70.10;;;;;;5087910;28;20016;-68
2023/03/16 04:05:27;;;;;;;4.07;2.38;;;5.90;70.20;;;;;;5081029;28;20028;-67
2023/03/16 04:07:56;;;;;;;3.38;2.03;;;5.90;70.30;;;;;;5085441;28;20024;-68
2023/03/16 04:10:24;;;;;;;3.53;2.10;;;5.90;70.30;;;;;;5088390;28;20028;-68
2023/03/16 04:12:49;;;;;;;2.20;1.85;;;5.90;70.40;;;;;;5080566;28;20160;-67
2023/03/16 04:15:15;;;;;;;3.67;2.45;;;5.90;70.50;;;;;;5083227;28;20035;-67
2023/03/16 04:17:41;;;;;;;2.22;1.83;;;5.90;70.60;;;;;;5076744;28;20099;-68
2023/03/16 04:20:14;;;;;;;2.40;1.85;;;5.80;70.70;;;;;;5088068;28;20043;-68
2023/03/16 04:22:42;;;;;;;2.10;1.70;;;5.80;70.70;;;;;;5073545;28;20025;-68
2023/03/16 04:25:09;;;;;;;4.20;2.08;;;5.80;70.70;;;;;;5084659;28;20397;-68
2023/03/16 04:27:35;;;;;;;2.95;1.80;;;5.80;70.80;;;;;;5086422;28;20068;-67
2023/03/16 04:30:12;;;;;;;4.95;2.35;;;5.80;71.20;;;;;;5083958;28;20111;-68
2023/03/16 04:32:38;;;;;;;3.85;2.30;;;5.70;71.30;;;;;;5082518;28;20021;-67
2023/03/16 04:35:04;;;;;;;3.90;2.33;;;5.70;71.70;;;;;;5089419;28;20312;-67
2023/03/16 04:37:29;;;;;;;3.53;2.10;;;5.70;71.50;;;;;;5079949;28;20032;-68
2023/03/16 04:39:55;;;;;;;3.50;2.30;;;5.70;71.50;;;;;;5085479;28;20028;-68
2023/03/16 04:42:21;;;;;;;2.58;2.08;;;5.70;71.50;;;;;;5087786;28;20040;-68
2023/03/16 04:44:47;;;;;;;2.08;1.58;;;5.70;72.10;;;;;;5083526;28;20025;-68
2023/03/16 04:47:14;;;;;;;3.03;1.88;;;5.70;71.50;;;;;;5080995;28;20366;-68
2023/03/16 04:49:40;;;;;;;4.45;2.17;;;5.70;71.70;;;;;;5089290;28;20486;-68
2023/03/16 04:52:07;;;;;;;3.33;2.20;;;5.60;71.90;;;;;;5084197;28;20036;-68
2023/03/16 04:54:32;;;;;;;3.47;2.15;;;5.60;72.00;;;;;;5088022;28;20027;-68
2023/03/16 04:56:59;;;;;;;5.38;2.17;;;5.60;72.00;;;;;;5076958;28;20040;-68
2023/03/16 04:59:25;;;;;;;2.05;1.65;;;5.60;71.90;;;;;;5089214;28;20021;-68
2023/03/16 05:01:51;;;;;;;2.80;2.08;;;5.60;72.00;;;;;;5085872;28;20074;-68
2023/03/16 05:04:16;;;;;;;3.40;2.00;;;5.50;72.10;;;;;;5091602;28;20032;-68
2023/03/16 05:06:42;;;;;;;2.38;2.13;;;5.50;72.30;;;;;;5084381;28;20028;-68
2023/03/16 05:09:08;;;;;;;2.72;2.20;;;5.50;72.30;;;;;;5088134;28;20024;-68
2023/03/16 05:11:35;;;;;;;3.25;2.22;;;5.50;72.30;;;;;;5083043;28;20027;-67
2023/03/16 05:14:01;;;;;;;4.15;2.25;;;5.50;72.30;;;;;;5081338;28;20028;-68
2023/03/16 05:16:27;;;;;;;3.83;2.42;;;5.50;72.30;;;;;;5087926;28;20114;-68
2023/03/16 05:18:53;;;;;;;4.18;2.10;;;5.50;72.40;;;;;;5088121;28;20027;-67
2023/03/16 05:21:19;;;;;;;4.45;2.40;;;5.50;72.50;;;;;;5084159;28;20036;-67
2023/03/16 05:23:45;;;;;;;4.28;2.50;;;5.50;72.60;;;;;;5084202;28;20021;-67
2023/03/16 05:26:12;;;;;;;2.85;2.08;;;5.50;72.60;;;;;;5083660;28;20032;-68
2023/03/16 05:28:37;;;;;;;2.97;2.40;;;5.50;72.70;;;;;;5080275;28;20039;-67
2023/03/16 05:31:03;;;;;;;3.35;2.50;;;5.50;72.80;;;;;;5086795;28;20032;-68
2023/03/16 05:33:29;;;;;;;4.07;2.35;;;5.50;72.70;;;;;;5089153;28;20039;-68
2023/03/16 05:35:56;;;;;;;7.57;3.58;;;5.50;72.90;;;;;;5085285;28;20016;-68
2023/03/16 05:38:23;;;;;;;5.25;3.30;;;5.50;72.90;;;;;;5085891;28;20016;-67
2023/03/16 05:40:51;;;;;;;4.22;2.58;;;5.50;73.00;;;;;;5083280;28;20020;-67
2023/03/16 05:43:19;;;;;;;3.95;2.70;;;5.50;73.00;;;;;;5083438;28;20021;-67
2023/03/16 05:45:45;;;;;;;4.45;2.67;;;5.50;73.00;;;;;;5084408;28;20017;-68
2023/03/16 05:48:10;;;;;;;4.20;2.63;;;5.50;73.00;;;;;;5078825;28;20035;-68
2023/03/16 05:50:36;;;;;;;2.47;1.98;;;5.50;72.90;;;;;;5083220;28;20025;-67
2023/03/16 05:53:02;;;;;;;2.97;2.20;;;5.50;72.90;;;;;;5078683;28;20028;-67
2023/03/16 05:55:28;;;;;;;4.78;2.03;;;5.50;72.90;;;;;;5089100;28;20370;-68
2023/03/16 05:57:54;;;;;;;3.90;2.25;;;5.50;72.90;;;;;;5086833;28;20016;-67
2023/03/16 06:00:20;;;;;;;3.00;2.08;;;5.60;72.90;;;;;;5081517;28;20021;-68
2023/03/16 06:02:48;;;;;;;3.10;1.80;;;5.60;72.80;;;;;;5086952;28;20035;-68
2023/03/16 06:05:15;;;;;;;2.63;2.05;;;5.60;72.70;;;;;;5086209;28;20028;-68
2023/03/16 06:07:40;;;;;;;2.47;1.60;;;5.70;72.70;;;;;;5071895;28;20116;-67
2023/03/16 06:10:07;;;;;;;4.35;2.08;;;5.70;72.70;;;;;;5076095;28;20127;-68
2023/03/16 06:12:33;;;;;;;3.30;2.17;;;5.70;72.70;;;;;;5075663;28;20020;-67
2023/03/16 06:14:59;;;;;;;2.10;1.70;;;5.70;72.70;;;;;;5084903;28;20026;-68
2023/03/16 06:17:25;;;;;;;4.00;2.33;;;5.70;72.70;;;;;;5083211;28;20024;-68
2023/03/16 06:19:50;;;;;;;3.17;1.80;;;5.70;73.00;;;;;;5087058;28;20040;-67
2023/03/16 06:22:17;;;;;;;4.28;2.42;;;5.60;73.10;;;;;;5088404;28;20036;-68
2023/03/16 06:24:43;;;;;;;2.67;2.10;;;5.60;73.60;;;;;;5088150;28;20026;-68
2023/03/16 06:27:08;;;;;;;3.35;2.10;;;5.60;73.60;;;;;;5090702;28;20024;-67
2023/03/16 06:29:35;;;;;;;3.17;2.17;;;5.60;73.70;;;;;;5081836;28;20132;-67
2023/03/16 06:32:01;;;;;;;6.45;2.30;;;5.60;73.70;;;;;;5070235;28;20100;-67
2023/03/16 06:34:26;;;;;;;3.10;1.88;;;5.60;73.80;;;;;;5087787;28;20028;-68
2023/03/16 06:36:52;;;;;;;2.35;1.95;;;5.60;73.80;;;;;;5088709;28;20801;-68
2023/03/16 06:39:17;;;;;;;3.40;2.28;;;5.60;73.80;;;;;;5073389;28;20043;-67
2023/03/16 06:41:43;;;;;;;4.43;2.53;;;5.60;74.00;;;;;;5074657;28;20111;-68
2023/03/16 06:44:10;;;;;;;4.82;2.40;;;5.60;74.20;;;;;;5072833;28;20033;-68
2023/03/16 06:46:36;;;;;;;5.00;2.00;;;5.60;74.40;;;;;;5083767;28;20060;-67
2023/03/16 06:49:03;;;;;;;3.95;2.33;;;5.60;74.30;;;;;;5075768;28;20040;-67
2023/03/16 06:51:30;;;;;;;4.53;2.30;;;5.60;74.50;;;;;;5082987;28;20043;-68
2023/03/16 06:53:56;;;;;;;4.43;2.40;;;5.60;74.60;;;;;;5088840;28;20020;-67
2023/03/16 06:56:22;;;;;;;3.35;2.25;;;5.60;74.70;;;;;;5088260;28;20028;-67
2023/03/16 06:58:47;;;;;;;5.18;2.42;;;5.60;74.80;;;;;;5077862;28;20028;-67
2023/03/16 07:01:13;;;;;;;4.82;2.50;;;5.70;74.90;;;;;;5077966;28;20497;-68
2023/03/16 07:03:38;;;;;;;3.35;2.63;;;5.60;74.90;;;;;;5077290;28;20067;-68
2023/03/16 07:06:04;;;;;;;3.42;2.15;;;5.60;75.20;;;;;;5085668;28;20020;-66
2023/03/16 07:08:30;;;;;;;3.38;2.30;;;5.60;75.40;;;;;;5090105;28;20510;-67
2023/03/16 07:10:56;;;;;;;4.00;2.28;;;5.60;76.00;;;;;;5089361;28;20162;-67
2023/03/16 07:13:22;;;;;;;3.47;2.20;;;5.60;76.00;;;;;;5089978;28;20036;-68
2023/03/16 07:15:51;;;;;;;4.20;2.13;;;5.60;76.10;;;;;;5084994;28;20020;-68
2023/03/16 07:18:17;;;;;;;5.63;2.70;;;5.60;76.10;;;;;;5089098;28;20078;-67
2023/03/16 07:20:43;;;;;;;4.07;2.50;;;5.60;76.50;;;;;;5077745;28;20467;-68
2023/03/16 07:23:09;;;;;;;3.35;2.35;;;5.70;76.40;;;;;;5087952;28;20107;-68
2023/03/16 07:25:35;;;;;;;4.03;2.33;;;5.70;76.70;;;;;;5083985;28;20103;-67
2023/03/16 07:28:02;;;;;;;4.40;2.55;;;5.70;76.80;;;;;;5093478;28;20020;-67
2023/03/16 07:30:28;;;;;;;3.97;2.80;;;5.80;76.60;;;;;;5089091;28;20020;-67
2023/03/16 07:32:53;;;;;;;5.57;2.83;;;5.80;76.50;;;;;;5089436;28;20099;-66
2023/03/16 07:35:21;;;;;;;5.22;2.83;;;5.90;76.50;;;;;;5092454;28;20035;-67
2023/03/16 07:37:46;;;;;;;6.18;3.25;;;5.90;77.00;;;;;;5086155;28;20533;-67
2023/03/16 07:40:13;;;;;;;5.68;3.10;;;5.90;77.50;;;;;;5097731;28;20111;-67
2023/03/16 07:42:39;;;;;;;7.53;3.53;;;6.00;77.10;;;;;;5093104;28;20050;-67
2023/03/16 07:45:05;;;;;;;7.40;3.45;;;6.00;76.80;;;;;;5080526;28;20036;-67
2023/03/16 07:47:32;;;;;;;5.80;3.35;;;6.00;77.10;;;;;;5085563;28;20138;-66
2023/03/16 07:49:58;;;;;;;6.45;2.97;;;6.00;77.00;;;;;;5093275;28;20024;-67
2023/03/16 07:52:24;;;;;;;5.43;2.67;;;6.00;77.10;;;;;;5081138;28;20016;-66
2023/03/16 07:54:50;;;;;;;5.00;3.00;;;6.10;77.00;;;;;;5094773;28;20059;-66
2023/03/16 07:57:15;;;;;;;6.15;3.00;;;6.10;77.20;;;;;;5088536;28;20055;-66
2023/03/16 07:59:41;;;;;;;5.30;2.85;;;6.10;77.20;;;;;;5091937;28;20123;-66
2023/03/16 08:02:13;;;;;;;4.85;2.70;;;6.00;77.60;;;;;;5089853;28;20107;-66
2023/03/16 08:04:41;;;;;;;5.22;2.83;;;6.00;77.50;;;;;;5092707;28;20611;-66
2023/03/16 08:07:08;;;;;;;5.45;2.75;;;6.10;77.50;;;;;;5092928;28;20020;-66
2023/03/16 08:09:34;;;;;;;4.95;2.72;;;6.10;77.60;;;;;;5086174;28;20028;-65
2023/03/16 08:12:02;;;;;;;4.95;3.05;;;6.00;77.70;;;;;;5088266;28;20486;-67
2023/03/16 08:14:28;;;;;;;4.35;2.97;;;6.00;78.30;;;;;;5089322;28;20031;-66
2023/03/16 08:16:54;;;;;;;6.03;3.38;;;6.00;78.20;;;;;;5088449;28;20019;-66
2023/03/16 08:19:19;;;;;;;3.67;2.60;;;6.00;78.40;;;;;;5093539;28;20078;-66
2023/03/16 08:21:45;;;;;;;4.88;2.78;;;6.00;78.50;;;;;;5093121;28;20027;-65
2023/03/16 08:24:10;;;;;;;4.00;2.50;;;6.10;78.40;;;;;;5092747;28;20032;-66
2023/03/16 08:26:36;;;;;;;5.10;2.63;;;6.00;78.60;;;;;;5095545;28;20077;-65
2023/03/16 08:29:02;;;;;;;4.47;2.72;;;6.00;78.80;;;;;;5093921;28;20035;-67
2023/03/16 08:31:29;;;;;;;4.75;2.30;;;6.10;78.90;;;;;;5092676;28;20401;-66
2023/03/16 08:33:56;;;;;;;5.38;3.05;;;6.10;78.80;;;;;;5093840;28;20019;-65
2023/03/16 08:36:22;;;;;;;5.75;3.05;;;6.10;79.10;;;;;;5089013;28;20070;-66
2023/03/16 08:38:47;;;;;;;5.82;2.70;;;6.20;79.40;;;;;;5095365;28;20036;-66
2023/03/16 08:41:15;;;;;;;4.30;3.05;;;6.20;78.90;;;;;;5092800;28;20028;-66
2023/03/16 08:43:41;;;;;;;5.03;2.35;;;6.30;79.00;;;;;;5098241;28;20020;-66
2023/03/16 08:46:06;;;;;;;8.63;3.15;;;6.40;78.90;;;;;;5089535;28;20585;-67
2023/03/16 08:48:32;;;;;;;6.25;3.17;;;6.40;79.60;;;;;;5096105;28;20109;-68
2023/03/16 08:51:02;;;;;;;4.78;2.72;;;6.40;79.00;;;;;;5088112;28;20017;-68
2023/03/16 08:53:28;;;;;;;5.13;2.88;;;6.40;79.20;;;;;;5087506;28;20020;-67
2023/03/16 08:56:03;;;;;;;4.80;2.70;;;6.50;79.10;;;;;;5084063;28;20456;-66
2023/03/16 08:58:31;;;;;;;5.05;2.50;;;6.60;78.70;;;;;;5086200;28;20012;-66
2023/03/16 09:00:58;;;;;;;5.18;2.65;;;6.70;78.60;;;;;;5088769;28;20020;-68
2023/03/16 09:03:24;;;;;;;5.22;2.75;;;6.80;78.60;;;;;;5090720;28;20020;-66
2023/03/16 09:05:50;;;;;;;4.00;2.70;;;6.80;78.70;;;;;;5088515;28;20027;-66
2023/03/16 09:08:17;;;;;;;4.80;2.42;;;6.80;78.90;;;;;;5093617;28;20440;-67
2023/03/16 09:10:42;;;;;;;5.97;3.13;;;6.80;78.90;;;;;;5092455;28;20538;-67
2023/03/16 09:13:08;;;;;;;3.72;2.40;;;6.80;78.90;;;;;;5085469;28;20143;-67
2023/03/16 09:15:34;;;;;;;5.18;2.92;;;6.80;78.70;;;;;;5086969;28;20016;-68
2023/03/16 09:18:02;;;;;;;3.97;2.85;;;6.80;78.60;;;;;;5085738;28;20039;-67
2023/03/16 09:20:28;;;;;;;4.05;2.50;;;6.90;78.60;;;;;;5087294;28;20115;-67
2023/03/16 09:22:55;;;;;;;5.63;2.88;;;6.90;78.50;;;;;;5084353;28;20024;-67
2023/03/16 09:25:21;;;;;;;5.32;3.45;;;6.90;78.40;;;;;;5085447;28;20112;-67
2023/03/16 09:27:46;;;;;;;4.20;2.60;;;7.00;78.50;;;;;;5088883;28;20031;-67
2023/03/16 09:30:13;;;;;;;4.30;2.60;;;7.00;78.20;;;;;;5087354;28;20409;-68
2023/03/16 09:32:39;;;;;;;4.50;2.70;;;7.10;78.10;;;;;;5086166;28;20016;-66
2023/03/16 09:35:05;;;;;;;3.75;2.70;;;7.10;78.10;;;;;;5089040;28;20020;-67
2023/03/16 09:37:31;;;;;;;5.57;2.60;;;7.20;78.10;;;;;;5086636;28;20367;-68
2023/03/16 09:39:57;;;;;;;7.05;2.95;;;7.20;77.90;;;;;;5083056;28;20059;-67
2023/03/16 09:42:35;;;;;;;7.25;3.30;;;7.30;77.70;;;;;;5086613;28;20052;-67
2023/03/16 09:45:31;;;;;;;6.22;3.17;;;7.30;77.50;;;;;;5087620;28;20063;-66
2023/03/16 09:48:00;;;;;;;6.80;3.17;;;7.30;77.70;;;;;;5086452;28;20042;-66
2023/03/16 09:50:33;;;;;;;5.32;3.00;;;7.30;77.80;;;;;;5087436;28;20012;-67
2023/03/16 09:53:22;;;;;;;6.05;3.13;;;7.30;77.80;;;;;;5086941;28;20042;-67
2023/03/16 09:55:52;;;;;;;6.65;2.92;;;7.40;77.80;;;;;;5085806;28;20020;-67
2023/03/16 09:58:21;;;;;;;5.45;3.00;;;7.50;77.70;;;;;;5084592;28;20024;-67
2023/03/16 10:01:15;;;;;;;5.88;3.10;;;7.50;77.50;;;;;;5085004;28;20106;-67
2023/03/16 10:04:02;;;;;;;4.70;2.90;;;7.50;77.40;;;;;;5086651;28;20097;-67
2023/03/16 10:06:28;;;;;;;5.57;3.17;;;7.50;77.40;;;;;;5086705;28;20456;-67
2023/03/16 10:08:57;;;;;;;4.78;2.80;;;7.50;77.50;;;;;;5086933;28;20042;-65
2023/03/16 10:11:34;;;;;;;7.85;3.75;;;7.60;77.50;;;;;;5085698;28;20154;-67
2023/03/16 10:14:03;;;;;;;8.15;3.60;;;7.60;77.50;;;;;;5086006;28;20034;-66
2023/03/16 10:16:39;;;;;;;5.47;3.10;;;7.60;77.40;;;;;;5085087;28;20040;-67
2023/03/16 10:19:37;;;;;;;5.32;2.97;;;7.70;77.20;;;;;;5083881;28;20486;-66
2023/03/16 10:22:18;;;;;;;5.82;2.90;;;7.80;77.10;;;;;;5083879;28;20038;-67
2023/03/16 10:25:21;;;;;;;6.28;2.80;;;7.90;76.90;;;;;;5083511;28;20050;-67
2023/03/16 10:27:47;;;;;;;;;;;8.00;76.80;;;;;;5085048;28;20047;-66
2023/03/16 10:30:19;;;;;;;7.35;3.05;;;8.00;76.50;;;;;;5084758;28;19908;-67
2023/03/16 10:32:45;;;;;;;6.28;3.22;;;8.10;76.40;;;;;;5087056;28;20098;-66
2023/03/16 10:35:37;;;;;;;4.18;2.63;;;8.20;76.10;;;;;;5084961;28;20028;-67
2023/03/16 10:38:03;;;;;;;4.68;2.50;;;8.30;75.70;;;;;;5082592;28;20048;-67
2023/03/16 10:40:37;;;;;;;5.32;2.80;;;8.50;75.40;;;;;;5083705;28;20059;-67
2023/03/16 10:43:12;;;;;;;5.25;2.47;;;8.60;75.00;;;;;;5084343;28;20032;-66
2023/03/16 10:45:41;;;;;;;5.53;2.97;;;8.70;74.60;;;;;;5084224;28;20038;-66
2023/03/16 10:48:16;;;;;;;6.00;3.53;;;8.90;74.40;;;;;;5085044;28;20051;-66
2023/03/16 10:50:43;;;;;;;6.60;3.47;;;9.00;74.10;;;;;;5084364;28;20050;-67
2023/03/16 10:53:20;;;;;;;5.93;2.95;;;9.00;73.70;;;;;;5086144;28;20119;-66
2023/03/16 10:55:47;;;;;;;6.32;3.10;;;9.10;73.40;;;;;;5084102;28;20028;-67
2023/03/16 10:58:24;;;;;;;5.93;2.83;;;9.10;73.40;;;;;;5086124;28;20025;-67
2023/03/16 11:00:50;;;;;;;4.50;2.60;;;9.20;73.30;;;;;;5086959;28;20393;-67
2023/03/16 11:03:40;;;;;;;5.47;3.40;;;9.30;73.20;;;;;;5089004;28;20111;-67
2023/03/16 11:06:16;;;;;;;4.95;2.60;;;9.30;72.70;;;;;;5088647;28;20060;-67
2023/03/16 11:08:44;;;;;;;6.22;3.10;;;9.40;72.60;;;;;;5088938;28;20020;-67
2023/03/16 11:11:15;;;;;;;5.03;2.38;;;9.50;72.40;;;;;;5091549;28;20047;-67
2023/03/16 11:13:46;;;;;;;4.57;2.70;;;9.70;72.20;;;;;;5091146;28;20016;-68
2023/03/16 11:16:35;;;;;;;4.63;2.88;;;9.80;71.30;;;;;;5088017;28;20501;-66
2023/03/16 11:19:16;;;;;;;4.93;2.70;;;9.90;71.40;;;;;;5088595;28;20054;-66
2023/03/16 11:21:53;;;;;;;6.05;2.70;;;9.80;70.60;;;;;;5089172;28;20119;-68
2023/03/16 11:24:29;;;;;;;6.70;3.17;;;9.90;70.80;;;;;;5089979;28;20016;-67
2023/03/16 11:26:59;;;;;;;6.95;3.00;;;9.90;70.60;;;;;;5088580;28;20040;-67
2023/03/16 11:29:34;;;;;;;5.53;2.72;;;10.10;70.80;;;;;;5089222;28;20024;-66
2023/03/16 11:32:15;;;;;;;6.07;2.97;;;10.20;70.50;;;;;;5086611;28;20138;-68
2023/03/16 11:34:42;;;;;;;7.68;3.08;;;10.30;70.30;;;;;;5090064;28;20028;-67
2023/03/16 11:37:07;;;;;;;5.03;2.83;;;10.30;69.40;;;;;;5087114;28;20025;-67
2023/03/16 11:39:39;;;;;;;5.03;3.10;;;10.30;69.60;;;;;;5090012;28;20039;-66
2023/03/16 11:42:26;;;;;;;5.28;2.90;;;10.30;69.30;;;;;;5090152;28;20794;-66
2023/03/16 11:45:36;;;;;;;8.93;3.35;;;10.40;69.10;;;;;;5088127;28;20497;-66
2023/03/16 11:48:21;;;;;;;5.57;2.88;;;10.40;69.10;;;;;;5085641;28;20051;-66
2023/03/16 11:50:57;;;;;;;4.57;2.78;;;10.50;69.20;;;;;;5084433;28;20035;-67
2023/03/16 11:53:28;;;;;;;5.18;2.90;;;10.60;69.10;;;;;;5090800;28;20121;-66
2023/03/16 11:56:18;;;;;;;6.33;2.93;;;10.60;68.40;;;;;;5088966;28;20422;-66
2023/03/16 11:58:56;;;;;;;5.82;3.03;;;10.60;68.30;;;;;;5086506;28;20785;-67
2023/03/16 12:01:58;;;;;;;5.60;2.72;;;10.70;68.10;;;;;;5088233;28;20129;-67
2023/03/16 12:04:45;;;;;;;4.38;2.88;;;10.80;68.00;;;;;;5088489;28;20039;-67
2023/03/16 12:07:28;;;;;;;5.82;3.13;;;10.80;67.80;;;;;;5086018;28;20421;-66
2023/03/16 12:10:01;;;;;;;5.85;2.80;;;10.80;67.20;;;;;;5086775;28;20458;-66
2023/03/16 12:13:09;;;;;;;4.82;2.50;;;10.80;67.10;;;;;;5091750;28;20035;-66
2023/03/16 12:15:35;;;;;;;4.95;2.42;;;10.90;67.20;;;;;;5089030;28;20035;-66
2023/03/16 12:18:15;;;;;;;3.50;2.40;;;11.00;67.00;;;;;;5090149;28;20107;-66
2023/03/16 12:21:04;;;;;;;5.60;2.60;;;11.00;66.60;;;;;;5085922;28;21254;-66
2023/03/16 12:23:38;;;;;;;6.60;2.88;;;11.00;66.30;;;;;;5087182;28;20019;-67
2023/03/16 12:26:04;;;;;;;6.78;2.80;;;11.00;66.10;;;;;;5087137;28;20035;-67
2023/03/16 12:28:32;;;;;;;8.00;3.38;;;11.10;67.00;;;;;;5087777;28;20798;-66
2023/03/16 12:31:40;;;;;;;4.07;2.33;;;11.10;65.60;;;;;;5088068;28;20020;-66
2023/03/16 12:34:09;;;;;;;5.68;2.80;;;11.20;66.10;;;;;;5089733;28;20058;-66
2023/03/16 12:37:01;;;;;;;8.18;2.97;;;11.30;65.80;;;;;;5083997;28;20109;-65
2023/03/16 12:40:04;;;;;;;6.43;2.90;;;11.50;65.90;;;;;;5088596;28;20494;-65
2023/03/16 12:43:08;;;;;;;7.60;3.08;;;11.70;65.20;;;;;;5089890;28;20530;-66
2023/03/16 12:46:08;;;;;;;7.38;3.35;;;11.80;64.10;;;;;;5086970;28;20031;-66
2023/03/16 12:48:52;;;;;;;9.32;3.40;;;11.90;63.40;;;;;;5084857;28;20023;-66
2023/03/16 12:51:18;;;;;;;6.38;3.17;;;11.90;62.70;;;;;;5088083;28;20032;-66
2023/03/16 12:53:50;;;;;;;7.57;3.22;;;11.90;62.50;;;;;;5090156;28;20017;-66
2023/03/16 12:56:17;;;;;;;;;;;12.00;63.00;;;;;;5090202;28;20032;-66
2023/03/16 12:58:56;;;;;;;11.23;4.40;;;12.20;61.90;;;;;;5086722;28;19908;-65
2023/03/16 13:01:29;;;;;;;7.00;3.60;;;12.30;61.80;;;;;;5088380;28;21058;-67
2023/03/16 13:04:09;;;;;;;7.22;3.25;;;12.40;62.20;;;;;;5089226;28;20028;-66
2023/03/16 13:06:35;;;;;;;7.10;3.00;;;12.40;61.80;;;;;;5087012;28;20070;-67
2023/03/16 13:09:04;;;;;;;6.28;3.05;;;12.50;61.60;;;;;;5086871;28;20729;-67